createdAt,value
2019-03-29T00:02:24.227Z,6.46
2019-03-29T00:04:52.258Z,6.44
2019-03-29T00:07:20.229Z,6.53
2019-03-29T00:09:47.550Z,6.57
2019-03-29T00:12:14.884Z,6.63
2019-03-29T00:14:42.359Z,6.68
2019-03-29T00:17:09.768Z,6.89
2019-03-29T00:19:37.087Z,6.90
2019-03-29T00:22:05.114Z,7.16
2019-03-29T00:24:32.629Z,7.33
2019-03-29T00:27:00.362Z,7.26
2019-03-29T00:29:27.582Z,7.15
2019-03-29T00:31:54.935Z,7.17
2019-03-29T00:34:22.259Z,7.23
2019-03-29T00:36:49.600Z,7.33
2019-03-29T00:39:16.899Z,7.29
2019-03-29T00:41:44.255Z,7.28
2019-03-29T00:44:11.572Z,7.23
2019-03-29T00:46:38.803Z,7.19
2019-03-29T00:49:06.029Z,7.09
2019-03-29T00:51:33.362Z,7.00
2019-03-29T00:54:01.898Z,6.90
2019-03-29T00:56:29.657Z,6.82
2019-03-29T00:58:56.968Z,6.79
2019-03-29T01:01:24.305Z,6.80
2019-03-29T01:03:51.919Z,6.76
2019-03-29T01:06:19.265Z,6.78
2019-03-29T01:08:46.786Z,6.82
2019-03-29T01:11:14.286Z,6.80
2019-03-29T01:13:42.359Z,6.76
2019-03-29T01:16:09.682Z,6.77
2019-03-29T01:18:37.950Z,6.93
2019-03-29T01:21:05.440Z,6.98
2019-03-29T01:23:32.785Z,6.85
2019-03-29T01:26:00.961Z,6.78
2019-03-29T01:28:28.567Z,6.55
2019-03-29T01:30:55.907Z,6.43
2019-03-29T01:33:23.121Z,6.54
2019-03-29T01:35:50.593Z,6.41
2019-03-29T01:38:22.182Z,6.50
2019-03-29T01:40:47.064Z,6.37
2019-03-29T01:43:14.436Z,6.20
2019-03-29T01:45:41.746Z,6.09
2019-03-29T01:48:09.202Z,6.08
2019-03-29T01:50:36.515Z,6.39
2019-03-29T01:53:03.834Z,6.12
2019-03-29T01:55:31.064Z,6.02
2019-03-29T01:57:59.067Z,5.90
2019-03-29T02:00:31.210Z,5.70
2019-03-29T02:02:58.674Z,5.69
2019-03-29T02:05:25.988Z,5.52
2019-03-29T02:07:53.216Z,5.38
2019-03-29T02:10:20.531Z,5.32
2019-03-29T02:12:47.876Z,5.24
2019-03-29T02:15:15.186Z,5.12
2019-03-29T02:17:42.517Z,5.06
2019-03-29T02:20:10.444Z,4.87
2019-03-29T02:22:37.806Z,4.87
2019-03-29T02:25:06.222Z,4.70
2019-03-29T02:27:33.588Z,4.61
2019-03-29T02:30:05.449Z,4.41
2019-03-29T02:32:32.783Z,4.41
2019-03-29T02:35:02.317Z,4.34
2019-03-29T02:37:30.144Z,4.66
2019-03-29T02:39:57.504Z,4.51
2019-03-29T02:42:24.881Z,4.28
2019-03-29T02:44:52.269Z,4.14
2019-03-29T02:47:21.504Z,4.08
2019-03-29T02:49:48.902Z,4.00
2019-03-29T02:52:16.447Z,3.93
2019-03-29T02:54:44.112Z,3.85
2019-03-29T02:57:11.456Z,3.85
2019-03-29T02:59:38.698Z,3.88
2019-03-29T03:02:06.280Z,3.92
2019-03-29T03:04:33.892Z,3.94
2019-03-29T03:07:02.026Z,3.97
2019-03-29T03:09:29.265Z,3.87
2019-03-29T03:11:56.596Z,3.73
2019-03-29T03:14:24.285Z,3.76
2019-03-29T03:16:51.584Z,3.76
2019-03-29T03:19:19.154Z,3.93
2019-03-29T03:21:46.498Z,3.89
2019-03-29T03:24:13.876Z,3.89
2019-03-29T03:26:41.116Z,3.98
2019-03-29T03:29:08.475Z,3.18
2019-03-29T03:31:35.822Z,4.01
2019-03-29T03:34:03.544Z,3.99
2019-03-29T03:36:30.940Z,4.04
2019-03-29T03:38:58.290Z,3.92
2019-03-29T03:41:25.625Z,3.88
2019-03-29T03:43:52.882Z,3.71
2019-03-29T03:46:20.213Z,3.49
2019-03-29T03:48:47.588Z,3.33
2019-03-29T03:51:15.224Z,3.26
2019-03-29T03:53:42.593Z,3.16
2019-03-29T03:56:10.523Z,3.09
2019-03-29T03:58:39.508Z,3.02
2019-03-29T04:01:06.848Z,2.96
2019-03-29T04:03:34.238Z,2.92
2019-03-29T04:06:01.593Z,3.27
2019-03-29T04:08:28.935Z,3.04
2019-03-29T04:10:56.294Z,2.91
2019-03-29T04:13:23.687Z,2.86
2019-03-29T04:15:51.050Z,2.79
2019-03-29T04:18:20.698Z,2.75
2019-03-29T04:20:48.051Z,2.70
2019-03-29T04:23:15.405Z,2.72
2019-03-29T04:25:43.131Z,2.71
2019-03-29T04:28:10.496Z,2.70
2019-03-29T04:30:38.173Z,2.72
2019-03-29T04:33:05.550Z,2.64
2019-03-29T04:35:33.253Z,2.95
2019-03-29T04:38:00.584Z,3.11
2019-03-29T04:40:27.941Z,3.24
2019-03-29T04:42:56.751Z,2.99
2019-03-29T04:45:24.133Z,1.71
2019-03-29T04:47:53.711Z,2.77
2019-03-29T04:50:21.077Z,2.68
2019-03-29T04:52:48.369Z,2.52
2019-03-29T04:55:15.731Z,2.42
2019-03-29T04:57:43.090Z,2.37
2019-03-29T05:00:10.690Z,2.40
2019-03-29T05:02:38.047Z,2.39
2019-03-29T05:05:05.340Z,2.44
2019-03-29T05:07:32.602Z,2.58
2019-03-29T05:09:59.947Z,2.59
2019-03-29T05:12:27.318Z,2.56
2019-03-29T05:14:54.643Z,2.43
2019-03-29T05:17:21.999Z,2.34
2019-03-29T05:19:49.352Z,2.28
2019-03-29T05:22:16.690Z,2.32
2019-03-29T05:24:44.094Z,2.38
2019-03-29T05:27:11.326Z,2.58
2019-03-29T05:29:38.692Z,2.88
2019-03-29T05:32:06.044Z,2.74
2019-03-29T05:34:33.384Z,2.63
2019-03-29T05:37:00.763Z,2.57
2019-03-29T05:39:28.428Z,2.56
2019-03-29T05:41:55.775Z,2.59
2019-03-29T05:44:23.112Z,2.74
2019-03-29T05:47:06.926Z,2.91
2019-03-29T05:49:34.263Z,3.12
2019-03-29T05:52:01.616Z,3.07
2019-03-29T05:54:28.987Z,3.20
2019-03-29T05:56:56.237Z,3.32
2019-03-29T05:59:23.590Z,3.35
2019-03-29T06:01:51.157Z,3.32
2019-03-29T06:04:18.517Z,3.26
2019-03-29T06:06:45.850Z,3.23
2019-03-29T06:09:13.122Z,3.41
2019-03-29T06:11:40.452Z,3.43
2019-03-29T06:14:07.824Z,3.42
2019-03-29T06:16:39.123Z,3.45
2019-03-29T06:19:04.405Z,3.55
2019-03-29T06:21:31.771Z,3.56
2019-03-29T06:23:59.124Z,3.60
2019-03-29T06:26:26.471Z,3.75
2019-03-29T06:28:53.829Z,4.24
2019-03-29T06:31:21.160Z,4.24
2019-03-29T06:33:48.519Z,4.44
2019-03-29T06:36:16.383Z,4.68
2019-03-29T06:39:06.124Z,4.88
2019-03-29T06:41:33.345Z,5.03
2019-03-29T06:44:00.671Z,5.26
2019-03-29T06:46:47.264Z,5.53
2019-03-29T06:49:14.564Z,6.14
2019-03-29T06:51:41.786Z,7.32
2019-03-29T06:54:09.087Z,9.23
2019-03-29T06:56:36.335Z,11.37
2019-03-29T06:59:03.563Z,13.49
2019-03-29T07:01:30.871Z,15.24
2019-03-29T07:03:58.192Z,16.16
2019-03-29T07:06:25.518Z,17.70
2019-03-29T07:08:52.843Z,19.27
2019-03-29T07:11:19.964Z,19.42
2019-03-29T07:13:57.429Z,18.58
2019-03-29T07:16:16.303Z,20.38
2019-03-29T07:18:43.506Z,21.18
2019-03-29T07:21:21.422Z,21.92
2019-03-29T07:23:39.865Z,23.09
2019-03-29T07:26:07.237Z,24.15
2019-03-29T07:28:34.555Z,24.35
2019-03-29T07:31:01.909Z,24.49
2019-03-29T07:33:29.241Z,24.59
2019-03-29T07:35:56.387Z,25.15
2019-03-29T07:38:23.740Z,25.69
2019-03-29T07:40:51.073Z,26.27
2019-03-29T07:43:18.202Z,26.93
2019-03-29T07:45:45.432Z,27.17
2019-03-29T07:48:12.773Z,24.30
2019-03-29T07:50:40.096Z,23.48
2019-03-29T07:53:07.428Z,23.47
2019-03-29T07:55:37.225Z,23.13
2019-03-29T07:58:23.634Z,25.26
2019-03-29T08:00:50.974Z,27.03
2019-03-29T08:03:37.938Z,28.53
2019-03-29T08:06:05.142Z,29.03
2019-03-29T08:08:34.419Z,30.35
2019-03-29T08:11:01.723Z,30.30
2019-03-29T08:13:29.033Z,29.50
2019-03-29T08:15:56.277Z,26.03
2019-03-29T08:18:23.609Z,28.70
2019-03-29T08:20:50.834Z,30.56
2019-03-29T08:23:18.186Z,27.53
2019-03-29T08:25:45.433Z,28.64
2019-03-29T08:28:12.780Z,24.13
2019-03-29T08:30:40.183Z,24.83
2019-03-29T08:33:07.336Z,25.80
2019-03-29T08:35:34.596Z,27.93
2019-03-29T08:38:01.867Z,28.90
2019-03-29T08:40:29.171Z,27.42
2019-03-29T08:42:56.411Z,27.98
2019-03-29T08:45:23.729Z,26.87
2019-03-29T08:47:51.080Z,25.41
2019-03-29T08:50:18.448Z,26.89
2019-03-29T08:52:45.848Z,26.96
2019-03-29T08:55:13.184Z,25.77
2019-03-29T08:57:40.433Z,26.90
2019-03-29T09:00:08.164Z,25.22
2019-03-29T09:02:35.915Z,26.71
2019-03-29T09:05:04.026Z,25.34
2019-03-29T09:07:44.066Z,26.30
2019-03-29T09:10:00.768Z,22.58
2019-03-29T09:12:28.249Z,22.51
2019-03-29T09:14:55.496Z,24.39
2019-03-29T09:17:22.832Z,24.55
2019-03-29T09:19:50.057Z,22.68
2019-03-29T09:22:17.394Z,24.45
2019-03-29T09:24:44.613Z,26.63
2019-03-29T09:27:12.046Z,28.31
2019-03-29T09:29:39.190Z,28.10
2019-03-29T09:32:06.506Z,29.18
2019-03-29T09:34:33.736Z,27.09
2019-03-29T09:37:00.939Z,26.94
2019-03-29T09:39:28.276Z,26.52
2019-03-29T09:41:55.598Z,28.08
2019-03-29T09:44:22.944Z,27.78
2019-03-29T09:46:50.272Z,24.80
2019-03-29T09:49:17.412Z,26.27
2019-03-29T09:52:03.983Z,27.87
2019-03-29T09:54:31.248Z,27.05
2019-03-29T09:56:58.599Z,25.98
2019-03-29T09:59:25.832Z,24.21
2019-03-29T10:01:54.223Z,25.41
2019-03-29T10:04:41.051Z,24.55
2019-03-29T10:07:08.364Z,24.73
2019-03-29T10:09:35.598Z,25.36
2019-03-29T10:12:03.008Z,24.33
2019-03-29T10:14:33.265Z,24.62
2019-03-29T10:16:59.612Z,24.62
2019-03-29T10:19:26.800Z,26.61
2019-03-29T10:21:54.146Z,27.60
2019-03-29T10:24:21.379Z,29.95
2019-03-29T10:26:48.700Z,25.84
2019-03-29T10:29:18.207Z,27.08
2019-03-29T10:31:45.713Z,28.05
2019-03-29T10:34:13.163Z,28.38
2019-03-29T10:36:40.407Z,27.04
2019-03-29T10:39:31.439Z,27.22
2019-03-29T10:41:58.972Z,28.13
2019-03-29T10:44:26.285Z,27.18
2019-03-29T10:46:53.616Z,28.56
2019-03-29T10:49:20.959Z,28.46
2019-03-29T10:51:48.276Z,32.21
2019-03-29T10:54:15.606Z,33.65
2019-03-29T10:56:42.971Z,31.76
2019-03-29T10:59:10.214Z,32.21
2019-03-29T11:01:37.547Z,31.15
2019-03-29T11:04:04.794Z,28.29
2019-03-29T11:06:32.111Z,28.35
2019-03-29T11:08:59.344Z,30.58
2019-03-29T11:11:26.649Z,33.64
2019-03-29T11:13:56.694Z,36.30
2019-03-29T11:16:23.242Z,35.43
2019-03-29T11:18:50.497Z,34.92
2019-03-29T11:21:17.809Z,36.18
2019-03-29T11:23:45.145Z,36.49
2019-03-29T11:26:12.440Z,38.98
2019-03-29T11:28:39.829Z,37.41
2019-03-29T11:31:07.293Z,32.29
2019-03-29T11:33:54.230Z,29.70
2019-03-29T11:36:21.451Z,29.50
2019-03-29T11:38:48.681Z,30.23
2019-03-29T11:41:15.979Z,31.40
2019-03-29T11:43:43.292Z,32.50
2019-03-29T11:46:10.619Z,33.48
2019-03-29T11:48:37.827Z,35.77
2019-03-29T11:51:18.320Z,31.58
2019-03-29T11:53:34.368Z,31.51
2019-03-29T11:56:01.709Z,30.72
2019-03-29T11:58:28.925Z,34.99
2019-03-29T12:00:56.162Z,31.98
2019-03-29T12:03:23.473Z,34.69
2019-03-29T12:05:50.790Z,33.58
2019-03-29T12:08:18.199Z,32.87
2019-03-29T12:10:45.938Z,26.95
2019-03-29T12:13:13.253Z,30.94
2019-03-29T12:15:40.578Z,33.46
2019-03-29T12:18:07.824Z,36.04
2019-03-29T12:20:35.150Z,39.26
2019-03-29T12:23:02.481Z,38.25
2019-03-29T12:25:29.797Z,35.18
2019-03-29T12:27:57.502Z,31.67
2019-03-29T12:30:31.782Z,31.71
2019-03-29T12:32:54.039Z,33.20
2019-03-29T12:35:21.376Z,31.38
2019-03-29T12:37:48.594Z,33.57
2019-03-29T12:40:15.914Z,33.37
2019-03-29T12:42:43.234Z,30.76
2019-03-29T12:45:10.660Z,31.88
2019-03-29T12:47:37.958Z,33.56
2019-03-29T12:50:05.407Z,31.86
2019-03-29T12:52:32.623Z,33.76
2019-03-29T12:54:59.965Z,35.65
2019-03-29T12:57:27.284Z,37.64
2019-03-29T12:59:54.507Z,32.33
2019-03-29T13:02:21.719Z,35.38
2019-03-29T13:04:49.051Z,35.39
2019-03-29T13:07:16.248Z,35.34
2019-03-29T13:09:43.582Z,31.97
2019-03-29T13:12:10.907Z,31.60
2019-03-29T13:14:38.240Z,31.75
2019-03-29T13:17:05.582Z,33.38
2019-03-29T13:19:32.899Z,33.38
2019-03-29T13:22:00.319Z,33.02
2019-03-29T13:24:27.552Z,31.45
2019-03-29T13:26:54.901Z,31.70
2019-03-29T13:29:22.223Z,33.16
2019-03-29T13:31:49.561Z,33.90
2019-03-29T13:34:16.918Z,33.53
2019-03-29T13:36:44.160Z,33.92
2019-03-29T13:39:11.461Z,35.63
2019-03-29T13:41:38.794Z,31.73
2019-03-29T13:44:06.111Z,30.85
2019-03-29T13:46:33.255Z,31.40
2019-03-29T13:49:00.560Z,31.87
2019-03-29T13:51:27.836Z,30.53
2019-03-29T13:53:55.162Z,31.22
2019-03-29T13:56:22.405Z,30.66
2019-03-29T13:58:49.726Z,30.44
2019-03-29T14:01:16.962Z,31.15
2019-03-29T14:03:44.175Z,33.42
2019-03-29T14:06:11.507Z,33.16
2019-03-29T14:08:38.815Z,32.00
2019-03-29T14:11:06.143Z,34.61
2019-03-29T14:13:33.451Z,34.09
2019-03-29T14:16:00.784Z,34.53
2019-03-29T14:18:28.423Z,36.42
2019-03-29T14:20:55.744Z,36.54
2019-03-29T14:23:23.063Z,36.44
2019-03-29T14:25:50.292Z,33.50
2019-03-29T14:28:17.597Z,35.21
2019-03-29T14:30:44.923Z,29.78
2019-03-29T14:33:12.219Z,28.56
2019-03-29T14:35:39.453Z,32.38
2019-03-29T14:38:06.788Z,31.92
2019-03-29T14:40:33.993Z,32.49
2019-03-29T14:43:01.326Z,32.99
2019-03-29T14:45:28.648Z,33.12
2019-03-29T14:47:55.986Z,34.21
2019-03-29T14:50:23.314Z,34.47
2019-03-29T14:52:50.548Z,34.45
2019-03-29T14:55:17.879Z,31.75
2019-03-29T14:57:45.124Z,31.42
2019-03-29T15:00:13.665Z,29.61
2019-03-29T15:02:41.014Z,26.47
2019-03-29T15:05:08.530Z,26.81
2019-03-29T15:07:35.867Z,29.86
2019-03-29T15:10:03.574Z,30.56
2019-03-29T15:12:30.803Z,27.77
2019-03-29T15:15:05.948Z,29.77
2019-03-29T15:17:27.277Z,29.89
2019-03-29T15:19:54.583Z,29.82
2019-03-29T15:22:24.128Z,31.74
2019-03-29T15:24:51.462Z,31.95
2019-03-29T15:27:18.797Z,29.86
2019-03-29T15:29:46.110Z,28.26
2019-03-29T15:32:13.338Z,27.99
2019-03-29T15:34:40.482Z,26.00
2019-03-29T15:37:10.004Z,25.49
2019-03-29T15:39:36.904Z,28.33
2019-03-29T15:42:04.233Z,29.79
2019-03-29T15:44:31.556Z,30.22
2019-03-29T15:46:58.691Z,29.11
2019-03-29T15:49:25.903Z,30.01
2019-03-29T15:51:53.241Z,30.32
2019-03-29T15:54:20.470Z,30.72
2019-03-29T15:56:47.813Z,31.08
2019-03-29T15:59:15.025Z,30.31
2019-03-29T16:01:42.351Z,28.83
2019-03-29T16:04:09.690Z,27.02
2019-03-29T16:06:37.002Z,26.57
2019-03-29T16:09:05.323Z,27.18
2019-03-29T16:11:32.646Z,27.39
2019-03-29T16:13:59.876Z,26.73
2019-03-29T16:16:27.194Z,28.03
2019-03-29T16:18:54.310Z,29.20
2019-03-29T16:21:21.534Z,28.59
2019-03-29T16:23:48.746Z,27.93
2019-03-29T16:26:15.856Z,27.11
2019-03-29T16:28:43.080Z,26.32
2019-03-29T16:31:10.378Z,23.32
2019-03-29T16:33:37.706Z,22.33
2019-03-29T16:36:05.023Z,22.08
2019-03-29T16:38:32.263Z,21.20
2019-03-29T16:40:59.601Z,20.86
2019-03-29T16:43:26.973Z,20.74
2019-03-29T16:45:54.323Z,21.05
2019-03-29T16:48:21.548Z,22.13
2019-03-29T16:50:49.807Z,23.30
2019-03-29T16:53:17.154Z,23.83
2019-03-29T16:55:44.374Z,23.52
2019-03-29T16:58:11.722Z,23.01
2019-03-29T17:00:39.056Z,22.51
2019-03-29T17:03:06.291Z,22.24
2019-03-29T17:05:33.609Z,21.51
2019-03-29T17:08:00.944Z,20.74
2019-03-29T17:10:28.262Z,20.38
2019-03-29T17:12:55.604Z,19.77
2019-03-29T17:15:22.926Z,19.31
2019-03-29T17:17:50.145Z,18.73
2019-03-29T17:20:17.484Z,18.53
2019-03-29T17:22:44.818Z,18.46
2019-03-29T17:25:12.138Z,18.57
2019-03-29T17:27:39.948Z,18.46
2019-03-29T17:30:28.518Z,18.30
2019-03-29T17:32:55.726Z,18.07
2019-03-29T17:35:23.421Z,17.54
2019-03-29T17:37:50.741Z,17.36
2019-03-29T17:40:18.063Z,16.99
2019-03-29T17:42:45.376Z,15.98
2019-03-29T17:45:13.006Z,16.55
2019-03-29T17:47:40.218Z,16.45
2019-03-29T17:50:07.763Z,16.29
2019-03-29T17:52:35.098Z,16.12
2019-03-29T17:55:02.800Z,16.06
2019-03-29T17:57:30.131Z,15.80
2019-03-29T17:59:57.756Z,15.58
2019-03-29T18:02:25.067Z,15.49
2019-03-29T18:04:52.397Z,15.33
2019-03-29T18:07:19.618Z,15.20
2019-03-29T18:09:46.848Z,15.06
2019-03-29T18:12:14.164Z,14.92
2019-03-29T18:14:41.490Z,14.79
2019-03-29T18:17:08.800Z,14.60
2019-03-29T18:19:36.147Z,14.61
2019-03-29T18:22:03.444Z,14.60
2019-03-29T18:24:30.782Z,14.66
2019-03-29T18:26:58.111Z,14.50
2019-03-29T18:29:25.361Z,14.26
2019-03-29T18:32:13.865Z,14.10
2019-03-29T18:34:41.794Z,14.00
2019-03-29T18:37:12.081Z,13.92
2019-03-29T18:39:40.219Z,13.81
2019-03-29T18:42:07.440Z,13.69
2019-03-29T18:44:34.792Z,13.60
2019-03-29T18:47:02.035Z,13.54
2019-03-29T18:49:29.374Z,13.42
2019-03-29T18:51:56.698Z,13.36
2019-03-29T18:54:24.049Z,13.33
2019-03-29T18:56:51.362Z,13.25
2019-03-29T18:59:18.700Z,13.24
2019-03-29T19:01:46.035Z,13.09
2019-03-29T19:04:13.371Z,12.94
2019-03-29T19:06:40.583Z,12.78
2019-03-29T19:09:08.215Z,12.76
2019-03-29T19:11:35.851Z,12.68
2019-03-29T19:14:03.212Z,12.56
2019-03-29T19:16:30.452Z,12.42
2019-03-29T19:19:09.402Z,12.41
2019-03-29T19:21:27.025Z,12.29
2019-03-29T19:24:13.963Z,12.21
2019-03-29T19:26:41.297Z,12.20
2019-03-29T19:29:08.611Z,12.20
2019-03-29T19:31:35.943Z,12.16
2019-03-29T19:34:03.629Z,12.04
2019-03-29T19:36:30.874Z,11.90
2019-03-29T19:38:58.228Z,11.75
2019-03-29T19:41:25.579Z,11.78
2019-03-29T19:43:52.824Z,11.75
2019-03-29T19:46:20.068Z,11.74
2019-03-29T19:48:47.386Z,11.75
2019-03-29T19:51:14.717Z,11.56
2019-03-29T19:53:41.967Z,11.47
2019-03-29T19:56:09.233Z,11.43
2019-03-29T19:58:36.548Z,11.33
2019-03-29T20:01:04.017Z,11.29
2019-03-29T20:03:31.290Z,11.30
2019-03-29T20:05:58.717Z,11.19
2019-03-29T20:08:26.023Z,11.12
2019-03-29T20:10:53.357Z,11.01
2019-03-29T20:13:20.705Z,11.06
2019-03-29T20:15:48.376Z,10.98
2019-03-29T20:18:15.813Z,10.91
2019-03-29T20:20:43.144Z,10.83
2019-03-29T20:23:10.344Z,11.03
2019-03-29T20:25:40.200Z,10.89
2019-03-29T20:28:07.421Z,10.77
2019-03-29T20:30:35.042Z,10.74
2019-03-29T20:33:02.399Z,10.60
2019-03-29T20:35:29.726Z,10.55
2019-03-29T20:37:57.391Z,10.51
2019-03-29T20:40:24.719Z,10.56
2019-03-29T20:42:52.035Z,10.32
2019-03-29T20:45:19.345Z,10.41
2019-03-29T20:47:46.709Z,10.39
2019-03-29T20:50:14.130Z,10.30
2019-03-29T20:52:41.465Z,10.19
2019-03-29T20:55:09.651Z,10.02
2019-03-29T20:57:37.004Z,9.88
2019-03-29T21:00:05.687Z,9.83
2019-03-29T21:02:33.028Z,9.90
2019-03-29T21:05:00.631Z,9.71
2019-03-29T21:07:27.866Z,9.65
2019-03-29T21:09:55.180Z,9.59
2019-03-29T21:12:22.649Z,9.41
2019-03-29T21:14:49.727Z,9.39
2019-03-29T21:17:16.944Z,9.24
2019-03-29T21:19:44.255Z,9.28
2019-03-29T21:22:11.478Z,9.15
2019-03-29T21:24:38.786Z,9.17
2019-03-29T21:27:06.122Z,9.16
2019-03-29T21:29:33.437Z,9.29
2019-03-29T21:32:00.671Z,9.14
2019-03-29T21:34:27.875Z,8.94
2019-03-29T21:36:55.218Z,8.83
2019-03-29T21:39:22.612Z,8.73
2019-03-29T21:41:50.141Z,8.72
2019-03-29T21:44:17.455Z,8.71
2019-03-29T21:46:44.799Z,8.57
2019-03-29T21:49:12.119Z,8.53
2019-03-29T21:51:39.455Z,8.38
2019-03-29T21:54:06.772Z,8.38
2019-03-29T21:56:34.026Z,8.36
2019-03-29T21:59:01.347Z,8.31
2019-03-29T22:01:28.694Z,8.23
2019-03-29T22:03:55.905Z,8.28
2019-03-29T22:06:23.128Z,8.26
2019-03-29T22:08:50.331Z,8.18
2019-03-29T22:11:17.748Z,8.31
2019-03-29T22:13:45.091Z,8.29
2019-03-29T22:16:12.408Z,8.30
2019-03-29T22:18:39.779Z,8.59
2019-03-29T22:21:07.149Z,8.82
2019-03-29T22:23:34.384Z,8.61
2019-03-29T22:26:01.697Z,8.42
2019-03-29T22:28:29.016Z,8.18
2019-03-29T22:30:56.229Z,8.32
2019-03-29T22:33:23.547Z,8.16
2019-03-29T22:35:50.884Z,8.01
2019-03-29T22:38:18.212Z,8.04
2019-03-29T22:40:45.596Z,7.89
2019-03-29T22:43:12.825Z,7.76
2019-03-29T22:45:40.048Z,7.71
2019-03-29T22:48:07.471Z,7.63
2019-03-29T22:50:34.787Z,7.63
2019-03-29T22:53:02.116Z,7.63
2019-03-29T22:55:29.437Z,7.68
2019-03-29T22:57:56.777Z,7.60
2019-03-29T23:00:35.464Z,7.42
2019-03-29T23:03:03.026Z,7.31
2019-03-29T23:05:30.342Z,7.22
2019-03-29T23:07:57.683Z,7.12
2019-03-29T23:10:24.887Z,7.08
2019-03-29T23:12:52.205Z,7.02
2019-03-29T23:15:19.514Z,7.01
2019-03-29T23:17:46.733Z,7.29
2019-03-29T23:20:14.045Z,7.32
2019-03-29T23:22:41.379Z,7.41
2019-03-29T23:25:10.483Z,7.13
2019-03-29T23:27:37.724Z,6.89
2019-03-29T23:30:06.189Z,6.78
2019-03-29T23:32:33.514Z,6.70
2019-03-29T23:35:00.706Z,6.78
2019-03-29T23:37:27.940Z,7.00
2019-03-29T23:39:55.251Z,6.86
2019-03-29T23:42:22.573Z,6.81
2019-03-29T23:44:49.875Z,6.63
2019-03-29T23:47:17.174Z,6.66
2019-03-29T23:49:44.497Z,6.58
2019-03-29T23:52:11.691Z,6.51
2019-03-29T23:54:38.927Z,6.48
2019-03-29T23:57:06.561Z,6.43
2019-03-29T23:59:33.788Z,6.56
